sensor_id;sensor_type;location;lat;lon;timestamp;pressure;altitude;pressure_sealevel;temperature;humidity
24280;BME280;12395;42.808;23.408;2023-01-28T00:01:47;94245.22;;;1.45;96.65
24280;BME280;12395;42.808;23.408;2023-01-28T00:04:13;94228.94;;;1.43;97.00
24280;BME280;12395;42.808;23.408;2023-01-28T00:06:39;94255.94;;;1.58;97.19
24280;BME280;12395;42.808;23.408;2023-01-28T00:09:05;94247.19;;;1.51;97.44
24280;BME280;12395;42.808;23.408;2023-01-28T00:11:30;94253.19;;;1.60;97.64
24280;BME280;12395;42.808;23.408;2023-01-28T00:13:56;94258.22;;;1.62;97.39
24280;BME280;12395;42.808;23.408;2023-01-28T00:16:21;94254.06;;;1.44;97.28
24280;BME280;12395;42.808;23.408;2023-01-28T00:18:47;94258.63;;;1.42;97.47
24280;BME280;12395;42.808;23.408;2023-01-28T00:21:14;94261.38;;;1.49;98.19
24280;BME280;12395;42.808;23.408;2023-01-28T00:23:41;94264.81;;;1.49;98.06
24280;BME280;12395;42.808;23.408;2023-01-28T00:26:12;94265.13;;;1.46;97.93
24280;BME280;12395;42.808;23.408;2023-01-28T00:28:38;94272.31;;;1.44;98.30
24280;BME280;12395;42.808;23.408;2023-01-28T00:31:08;94278.16;;;1.54;98.35
24280;BME280;12395;42.808;23.408;2023-01-28T00:33:35;94273.28;;;1.51;98.43
24280;BME280;12395;42.808;23.408;2023-01-28T00:36:01;94280.63;;;1.56;98.56
24280;BME280;12395;42.808;23.408;2023-01-28T00:38:27;94280.75;;;1.54;98.05
24280;BME280;12395;42.808;23.408;2023-01-28T00:40:53;94262.19;;;1.49;97.56
24280;BME280;12395;42.808;23.408;2023-01-28T00:43:19;94274.41;;;1.57;96.91
24280;BME280;12395;42.808;23.408;2023-01-28T00:45:44;94270.31;;;1.54;97.18
24280;BME280;12395;42.808;23.408;2023-01-28T00:48:10;94284.38;;;1.53;97.05
24280;BME280;12395;42.808;23.408;2023-01-28T00:50:35;94285.69;;;1.49;96.99
24280;BME280;12395;42.808;23.408;2023-01-28T00:53:01;94290.38;;;1.62;97.59
24280;BME280;12395;42.808;23.408;2023-01-28T00:55:27;94279.78;;;1.55;98.54
24280;BME280;12395;42.808;23.408;2023-01-28T00:57:53;94286.47;;;1.58;98.98
24280;BME280;12395;42.808;23.408;2023-01-28T01:00:18;94281.25;;;1.58;99.33
24280;BME280;12395;42.808;23.408;2023-01-28T01:02:46;94282.06;;;1.67;99.44
24280;BME280;12395;42.808;23.408;2023-01-28T01:05:11;94290.03;;;1.73;99.63
24280;BME280;12395;42.808;23.408;2023-01-28T01:07:36;94287.88;;;1.77;99.52
24280;BME280;12395;42.808;23.408;2023-01-28T01:10:15;94277.94;;;1.72;100.00
24280;BME280;12395;42.808;23.408;2023-01-28T01:12:41;94281.00;;;1.76;98.64
24280;BME280;12395;42.808;23.408;2023-01-28T01:15:08;94286.41;;;1.74;98.78
24280;BME280;12395;42.808;23.408;2023-01-28T01:17:41;94286.88;;;1.78;98.84
24280;BME280;12395;42.808;23.408;2023-01-28T01:20:11;94277.25;;;1.78;99.11
24280;BME280;12395;42.808;23.408;2023-01-28T01:22:37;94287.22;;;1.75;99.73
24280;BME280;12395;42.808;23.408;2023-01-28T01:25:03;94294.38;;;1.81;99.71
24280;BME280;12395;42.808;23.408;2023-01-28T01:27:30;94283.63;;;1.76;99.61
24280;BME280;12395;42.808;23.408;2023-01-28T01:29:55;94287.69;;;1.78;99.37
24280;BME280;12395;42.808;23.408;2023-01-28T01:32:21;94289.19;;;1.73;99.28
24280;BME280;12395;42.808;23.408;2023-01-28T01:34:47;94301.72;;;1.85;99.38
24280;BME280;12395;42.808;23.408;2023-01-28T01:37:13;94302.88;;;1.83;99.51
24280;BME280;12395;42.808;23.408;2023-01-28T01:39:38;94294.69;;;1.86;99.61
24280;BME280;12395;42.808;23.408;2023-01-28T01:42:04;94300.72;;;1.86;99.60
24280;BME280;12395;42.808;23.408;2023-01-28T01:44:55;94306.44;;;1.90;98.80
24280;BME280;12395;42.808;23.408;2023-01-28T01:52:45;94307.72;;;1.94;98.15
24280;BME280;12395;42.808;23.408;2023-01-28T01:55:16;94302.50;;;1.94;98.81
24280;BME280;12395;42.808;23.408;2023-01-28T01:57:45;94297.97;;;1.88;99.20
24280;BME280;12395;42.808;23.408;2023-01-28T02:00:12;94286.72;;;1.79;99.23
24280;BME280;12395;42.808;23.408;2023-01-28T02:02:40;94306.44;;;1.90;98.69
24280;BME280;12395;42.808;23.408;2023-01-28T02:05:08;94309.03;;;1.90;97.77
24280;BME280;12395;42.808;23.408;2023-01-28T02:07:35;94309.03;;;1.90;97.30
24280;BME280;12395;42.808;23.408;2023-01-28T02:10:01;94292.47;;;1.75;97.72
24280;BME280;12395;42.808;23.408;2023-01-28T02:12:33;94295.53;;;1.78;97.30
24280;BME280;12395;42.808;23.408;2023-01-28T02:15:06;94311.34;;;1.85;97.16
24280;BME280;12395;42.808;23.408;2023-01-28T02:17:33;94321.47;;;1.88;98.10
24280;BME280;12395;42.808;23.408;2023-01-28T02:20:08;94327.47;;;1.88;98.16
24280;BME280;12395;42.808;23.408;2023-01-28T02:30:32;94321.13;;;1.83;98.60
24280;BME280;12395;42.808;23.408;2023-01-28T02:33:03;94317.25;;;1.79;97.80
24280;BME280;12395;42.808;23.408;2023-01-28T02:35:41;94325.53;;;1.82;97.58
24280;BME280;12395;42.808;23.408;2023-01-28T02:38:15;94315.31;;;1.73;97.20
24280;BME280;12395;42.808;23.408;2023-01-28T02:40:46;94326.38;;;1.83;97.60
24280;BME280;12395;42.808;23.408;2023-01-28T02:43:45;94318.06;;;1.79;97.84
24280;BME280;12395;42.808;23.408;2023-01-28T02:49:14;94308.81;;;1.69;98.06
24280;BME280;12395;42.808;23.408;2023-01-28T02:55:06;94319.25;;;1.69;98.37
24280;BME280;12395;42.808;23.408;2023-01-28T02:57:42;94325.75;;;1.73;98.38
24280;BME280;12395;42.808;23.408;2023-01-28T03:00:16;94322.81;;;1.68;98.79
24280;BME280;12395;42.808;23.408;2023-01-28T03:02:51;94313.38;;;1.58;98.75
24280;BME280;12395;42.808;23.408;2023-01-28T03:05:57;94327.56;;;1.64;98.99
24280;BME280;12395;42.808;23.408;2023-01-28T03:11:40;94319.78;;;1.56;99.08
24280;BME280;12395;42.808;23.408;2023-01-28T03:14:25;94318.09;;;1.63;99.39
24280;BME280;12395;42.808;23.408;2023-01-28T03:17:33;94326.09;;;1.62;98.77
24280;BME280;12395;42.808;23.408;2023-01-28T03:20:19;94316.66;;;1.52;99.02
24280;BME280;12395;42.808;23.408;2023-01-28T03:23:08;94314.06;;;1.44;99.28
24280;BME280;12395;42.808;23.408;2023-01-28T03:25:57;94326.13;;;1.53;99.29
24280;BME280;12395;42.808;23.408;2023-01-28T03:28:44;94315.84;;;1.52;99.46
24280;BME280;12395;42.808;23.408;2023-01-28T03:31:29;94319.09;;;1.54;99.54
24280;BME280;12395;42.808;23.408;2023-01-28T03:34:13;94314.69;;;1.54;99.21
24280;BME280;12395;42.808;23.408;2023-01-28T03:36:58;94327.06;;;1.61;99.68
24280;BME280;12395;42.808;23.408;2023-01-28T03:39:26;94327.72;;;1.63;99.91
24280;BME280;12395;42.808;23.408;2023-01-28T03:42:03;94320.09;;;1.53;99.84
24280;BME280;12395;42.808;23.408;2023-01-28T03:44:30;94332.28;;;1.61;99.30
24280;BME280;12395;42.808;23.408;2023-01-28T03:47:14;94333.78;;;1.55;99.79
24280;BME280;12395;42.808;23.408;2023-01-28T03:49:45;94335.09;;;1.59;99.94
24280;BME280;12395;42.808;23.408;2023-01-28T03:52:14;94332.28;;;1.61;99.57
24280;BME280;12395;42.808;23.408;2023-01-28T03:54:39;94323.19;;;1.48;99.24
24280;BME280;12395;42.808;23.408;2023-01-28T03:57:05;94328.09;;;1.43;99.26
24280;BME280;12395;42.808;23.408;2023-01-28T03:59:31;94347.16;;;1.52;100.00
24280;BME280;12395;42.808;23.408;2023-01-28T04:01:57;94348.66;;;1.46;100.00
24280;BME280;12395;42.808;23.408;2023-01-28T04:04:22;94336.56;;;1.45;100.00
24280;BME280;12395;42.808;23.408;2023-01-28T04:06:52;94362.03;;;1.51;100.00
24280;BME280;12395;42.808;23.408;2023-01-28T04:09:19;94347.69;;;1.47;100.00
24280;BME280;12395;42.808;23.408;2023-01-28T04:11:45;94345.06;;;1.39;100.00
24280;BME280;12395;42.808;23.408;2023-01-28T04:14:10;94343.59;;;1.37;100.00
24280;BME280;12395;42.808;23.408;2023-01-28T04:16:36;94345.41;;;1.36;100.00
24280;BME280;12395;42.808;23.408;2023-01-28T04:19:01;94341.50;;;1.32;100.00
24280;BME280;12395;42.808;23.408;2023-01-28T04:21:27;94345.06;;;1.39;100.00
24280;BME280;12395;42.808;23.408;2023-01-28T04:23:52;94352.25;;;1.37;100.00
24280;BME280;12395;42.808;23.408;2023-01-28T04:26:17;94356.16;;;1.41;100.00
24280;BME280;12395;42.808;23.408;2023-01-28T04:28:43;94338.88;;;1.24;100.00
24280;BME280;12395;42.808;23.408;2023-01-28T04:31:08;94348.00;;;1.28;100.00
24280;BME280;12395;42.808;23.408;2023-01-28T04:33:34;94351.13;;;1.32;100.00
24280;BME280;12395;42.808;23.408;2023-01-28T04:35:59;94359.13;;;1.30;100.00
24280;BME280;12395;42.808;23.408;2023-01-28T04:38:25;94361.06;;;1.28;100.00
24280;BME280;12395;42.808;23.408;2023-01-28T04:40:51;94369.88;;;1.35;100.00
24280;BME280;12395;42.808;23.408;2023-01-28T04:43:17;94365.00;;;1.32;100.00
24280;BME280;12395;42.808;23.408;2023-01-28T04:45:44;94374.41;;;1.41;100.00
24280;BME280;12395;42.808;23.408;2023-01-28T04:48:10;94373.78;;;1.31;100.00
24280;BME280;12395;42.808;23.408;2023-01-28T04:50:35;94372.81;;;1.32;100.00
24280;BME280;12395;42.808;23.408;2023-01-28T04:53:01;94369.22;;;1.25;100.00
24280;BME280;12395;42.808;23.408;2023-01-28T04:55:26;94382.59;;;1.30;100.00
24280;BME280;12395;42.808;23.408;2023-01-28T04:57:52;94375.91;;;1.20;100.00
24280;BME280;12395;42.808;23.408;2023-01-28T05:00:17;94388.47;;;1.16;100.00
24280;BME280;12395;42.808;23.408;2023-01-28T05:02:43;94380.63;;;1.16;100.00
24280;BME280;12395;42.808;23.408;2023-01-28T05:05:08;94356.84;;;0.95;100.00
24280;BME280;12395;42.808;23.408;2023-01-28T05:07:34;94382.25;;;1.09;100.00
24280;BME280;12395;42.808;23.408;2023-01-28T05:10:00;94378.03;;;1.08;100.00
24280;BME280;12395;42.808;23.408;2023-01-28T05:12:25;94393.19;;;1.13;100.00
24280;BME280;12395;42.808;23.408;2023-01-28T05:14:51;94388.13;;;1.11;100.00
24280;BME280;12395;42.808;23.408;2023-01-28T05:17:16;94392.03;;;1.07;100.00
24280;BME280;12395;42.808;23.408;2023-01-28T05:19:41;94373.13;;;0.97;100.00
24280;BME280;12395;42.808;23.408;2023-01-28T05:22:07;94410.00;;;1.02;100.00
24280;BME280;12395;42.808;23.408;2023-01-28T05:24:33;94402.81;;;0.96;100.00
24280;BME280;12395;42.808;23.408;2023-01-28T05:26:58;94413.72;;;1.00;100.00
24280;BME280;12395;42.808;23.408;2023-01-28T05:29:24;94401.00;;;0.89;100.00
24280;BME280;12395;42.808;23.408;2023-01-28T05:31:49;94399.53;;;0.86;100.00
24280;BME280;12395;42.808;23.408;2023-01-28T05:34:15;94411.28;;;0.98;100.00
24280;BME280;12395;42.808;23.408;2023-01-28T05:36:40;94410.63;;;1.04;100.00
24280;BME280;12395;42.808;23.408;2023-01-28T05:39:06;94397.75;;;0.95;100.00
24280;BME280;12395;42.808;23.408;2023-01-28T05:41:32;94405.09;;;0.99;100.00
24280;BME280;12395;42.808;23.408;2023-01-28T05:43:58;94414.22;;;1.03;100.00
24280;BME280;12395;42.808;23.408;2023-01-28T05:46:23;94421.06;;;1.04;100.00
24280;BME280;12395;42.808;23.408;2023-01-28T05:48:51;94419.13;;;0.98;100.00
24280;BME280;12395;42.808;23.408;2023-01-28T05:51:16;94418.13;;;0.99;100.00
24280;BME280;12395;42.808;23.408;2023-01-28T05:53:42;94426.28;;;0.96;100.00
24280;BME280;12395;42.808;23.408;2023-01-28T05:56:07;94420.38;;;0.94;100.00
24280;BME280;12395;42.808;23.408;2023-01-28T05:58:33;94426.28;;;0.96;100.00
24280;BME280;12395;42.808;23.408;2023-01-28T06:00:58;94435.41;;;1.00;100.00
24280;BME280;12395;42.808;23.408;2023-01-28T06:03:24;94439.63;;;1.01;100.00
24280;BME280;12395;42.808;23.408;2023-01-28T06:05:49;94439.97;;;0.98;100.00
24280;BME280;12395;42.808;23.408;2023-01-28T06:08:15;94452.03;;;1.07;100.00
24280;BME280;12395;42.808;23.408;2023-01-28T06:10:40;94445.38;;;1.05;100.00
24280;BME280;12395;42.808;23.408;2023-01-28T06:13:05;94459.84;;;1.07;100.00
24280;BME280;12395;42.808;23.408;2023-01-28T06:15:31;94446.16;;;0.97;100.00
24280;BME280;12395;42.808;23.408;2023-01-28T06:17:57;94450.22;;;0.92;100.00
24280;BME280;12395;42.808;23.408;2023-01-28T06:20:22;94450.06;;;0.93;100.00
24280;BME280;12395;42.808;23.408;2023-01-28T06:22:51;94470.28;;;1.07;100.00
24280;BME280;12395;42.808;23.408;2023-01-28T06:25:17;94472.91;;;1.07;100.00
24280;BME280;12395;42.808;23.408;2023-01-28T06:27:43;94475.69;;;1.06;100.00
24280;BME280;12395;42.808;23.408;2023-01-28T06:30:09;94469.63;;;0.97;100.00
24280;BME280;12395;42.808;23.408;2023-01-28T06:32:34;94466.06;;;1.06;100.00
24280;BME280;12395;42.808;23.408;2023-01-28T06:35:00;94480.09;;;1.13;100.00
24280;BME280;12395;42.808;23.408;2023-01-28T06:37:25;94476.81;;;1.11;100.00
24280;BME280;12395;42.808;23.408;2023-01-28T06:39:51;94479.09;;;1.06;100.00
24280;BME280;12395;42.808;23.408;2023-01-28T06:42:17;94472.41;;;1.04;100.00
24280;BME280;12395;42.808;23.408;2023-01-28T06:44:42;94478.13;;;1.07;100.00
24280;BME280;12395;42.808;23.408;2023-01-28T06:47:08;94490.84;;;1.18;100.00
24280;BME280;12395;42.808;23.408;2023-01-28T06:49:35;94482.19;;;1.10;100.00
24280;BME280;12395;42.808;23.408;2023-01-28T06:52:01;94492.16;;;1.14;100.00
24280;BME280;12395;42.808;23.408;2023-01-28T06:54:26;94499.50;;;1.19;100.00
24280;BME280;12395;42.808;23.408;2023-01-28T06:56:51;94501.13;;;1.20;100.00
24280;BME280;12395;42.808;23.408;2023-01-28T06:59:17;94496.56;;;1.14;100.00
24280;BME280;12395;42.808;23.408;2023-01-28T07:01:42;94506.84;;;1.23;100.00
24280;BME280;12395;42.808;23.408;2023-01-28T07:04:08;94495.75;;;1.13;100.00
24280;BME280;12395;42.808;23.408;2023-01-28T07:06:33;94501.59;;;1.07;100.00
24280;BME280;12395;42.808;23.408;2023-01-28T07:08:59;94514.63;;;1.07;100.00
24280;BME280;12395;42.808;23.408;2023-01-28T07:11:24;94511.03;;;1.00;100.00
24280;BME280;12395;42.808;23.408;2023-01-28T07:13:49;94519.53;;;1.10;100.00
24280;BME280;12395;42.808;23.408;2023-01-28T07:16:15;94531.63;;;1.19;99.72
24280;BME280;12395;42.808;23.408;2023-01-28T07:18:41;94518.06;;;1.16;99.39
24280;BME280;12395;42.808;23.408;2023-01-28T07:21:06;94528.38;;;1.25;98.90
24280;BME280;12395;42.808;23.408;2023-01-28T07:23:32;94538.81;;;1.33;98.36
24280;BME280;12395;42.808;23.408;2023-01-28T07:26:01;94540.78;;;1.31;98.06
24280;BME280;12395;42.808;23.408;2023-01-28T07:28:27;94523.47;;;1.14;97.25
24280;BME280;12395;42.808;23.408;2023-01-28T07:30:53;94545.63;;;1.18;97.07
24280;BME280;12395;42.808;23.408;2023-01-28T07:33:18;94556.59;;;1.22;97.62
24280;BME280;12395;42.808;23.408;2023-01-28T07:35:44;94561.81;;;1.30;97.55
24280;BME280;12395;42.808;23.408;2023-01-28T07:38:10;94559.06;;;1.31;97.82
24280;BME280;12395;42.808;23.408;2023-01-28T07:40:36;94569.50;;;1.31;97.79
24280;BME280;12395;42.808;23.408;2023-01-28T07:43:02;94563.47;;;1.39;97.47
24280;BME280;12395;42.808;23.408;2023-01-28T07:45:27;94551.06;;;1.33;97.96
24280;BME280;12395;42.808;23.408;2023-01-28T07:47:59;94567.53;;;1.41;97.72
24280;BME280;12395;42.808;23.408;2023-01-28T07:50:26;94574.59;;;1.49;98.33
24280;BME280;12395;42.808;23.408;2023-01-28T07:52:57;94569.19;;;1.58;98.31
24280;BME280;12395;42.808;23.408;2023-01-28T07:55:22;94568.72;;;1.55;97.28
24280;BME280;12395;42.808;23.408;2023-01-28T07:57:51;94573.94;;;1.71;97.86
24280;BME280;12395;42.808;23.408;2023-01-28T08:00:18;94574.13;;;1.78;96.88
24280;BME280;12395;42.808;23.408;2023-01-28T08:02:43;94576.41;;;1.81;95.64
24280;BME280;12395;42.808;23.408;2023-01-28T08:05:14;94565.16;;;1.72;94.23
24280;BME280;12395;42.808;23.408;2023-01-28T08:07:39;94575.44;;;1.82;93.83
24280;BME280;12395;42.808;23.408;2023-01-28T08:10:05;94594.88;;;2.03;93.83
24280;BME280;12395;42.808;23.408;2023-01-28T08:12:31;94579.84;;;1.97;92.81
24280;BME280;12395;42.808;23.408;2023-01-28T08:14:56;94582.63;;;2.20;94.07
24280;BME280;12395;42.808;23.408;2023-01-28T08:17:21;94592.75;;;2.23;93.29
24280;BME280;12395;42.808;23.408;2023-01-28T08:19:47;94583.59;;;2.11;93.05
24280;BME280;12395;42.808;23.408;2023-01-28T08:22:12;94585.56;;;2.25;92.55
24280;BME280;12395;42.808;23.408;2023-01-28T08:24:38;94590.63;;;2.10;92.18
24280;BME280;12395;42.808;23.408;2023-01-28T08:27:03;94590.28;;;2.05;92.52
24280;BME280;12395;42.808;23.408;2023-01-28T08:29:28;94597.63;;;2.10;92.42
24280;BME280;12395;42.808;23.408;2023-01-28T08:31:54;94595.22;;;2.00;91.82
24280;BME280;12395;42.808;23.408;2023-01-28T08:34:19;94602.38;;;2.06;91.94
24280;BME280;12395;42.808;23.408;2023-01-28T08:36:45;94597.50;;;2.19;91.67
24280;BME280;12395;42.808;23.408;2023-01-28T08:39:10;94600.13;;;2.11;91.19
24280;BME280;12395;42.808;23.408;2023-01-28T08:41:35;94592.09;;;1.97;90.63
24280;BME280;12395;42.808;23.408;2023-01-28T08:44:01;94607.75;;;1.97;91.69
24280;BME280;12395;42.808;23.408;2023-01-28T08:46:26;94609.22;;;1.99;91.93
24280;BME280;12395;42.808;23.408;2023-01-28T08:48:51;94602.69;;;1.95;92.79
24280;BME280;12395;42.808;23.408;2023-01-28T08:51:17;94586.88;;;1.81;92.19
24280;BME280;12395;42.808;23.408;2023-01-28T08:53:42;94606.44;;;1.93;91.75
24280;BME280;12395;42.808;23.408;2023-01-28T08:56:07;94619.19;;;1.96;91.55
24280;BME280;12395;42.808;23.408;2023-01-28T08:58:33;94616.91;;;2.09;91.33
24280;BME280;12395;42.808;23.408;2023-01-28T09:01:04;94628.50;;;2.22;90.96
24280;BME280;12395;42.808;23.408;2023-01-28T09:03:30;94607.28;;;2.25;91.30
24280;BME280;12395;42.808;23.408;2023-01-28T09:06:03;94609.22;;;2.31;91.02
24280;BME280;12395;42.808;23.408;2023-01-28T09:08:29;94625.72;;;2.40;91.28
24280;BME280;12395;42.808;23.408;2023-01-28T09:10:56;94620.84;;;2.45;91.70
24280;BME280;12395;42.808;23.408;2023-01-28T09:13:22;94618.53;;;2.42;89.99
24280;BME280;12395;42.808;23.408;2023-01-28T09:15:47;94620.19;;;2.43;90.46
24280;BME280;12395;42.808;23.408;2023-01-28T09:18:13;94609.72;;;2.51;90.68
24280;BME280;12395;42.808;23.408;2023-01-28T09:20:39;94614.94;;;2.43;89.45
24280;BME280;12395;42.808;23.408;2023-01-28T09:23:05;94600.06;;;2.35;89.66
24280;BME280;12395;42.808;23.408;2023-01-28T09:25:30;94607.09;;;2.43;89.85
24280;BME280;12395;42.808;23.408;2023-01-28T09:27:57;94621.16;;;2.58;89.96
24280;BME280;12395;42.808;23.408;2023-01-28T09:30:22;94608.59;;;2.46;89.57
24280;BME280;12395;42.808;23.408;2023-01-28T09:32:52;94599.09;;;2.45;88.19
24280;BME280;12395;42.808;23.408;2023-01-28T09:35:18;94616.06;;;2.65;87.68
24280;BME280;12395;42.808;23.408;2023-01-28T09:37:44;94604.78;;;2.64;88.52
24280;BME280;12395;42.808;23.408;2023-01-28T09:40:44;94609.81;;;2.74;87.23
24280;BME280;12395;42.808;23.408;2023-01-28T09:45:41;94619.94;;;2.93;87.62
24280;BME280;12395;42.808;23.408;2023-01-28T09:48:13;94616.63;;;2.91;87.82
24280;BME280;12395;42.808;23.408;2023-01-28T09:50:43;94611.63;;;2.81;87.75
24280;BME280;12395;42.808;23.408;2023-01-28T09:55:49;94604.09;;;2.86;90.33
24280;BME280;12395;42.808;23.408;2023-01-28T09:58:17;94610.97;;;2.79;90.78
24280;BME280;12395;42.808;23.408;2023-01-28T10:00:59;94614.78;;;2.61;91.00
24280;BME280;12395;42.808;23.408;2023-01-28T10:15:34;94615.25;;;2.64;93.40
24280;BME280;12395;42.808;23.408;2023-01-28T10:18:03;94615.56;;;2.69;94.36
24280;BME280;12395;42.808;23.408;2023-01-28T10:20:59;94606.28;;;2.59;94.10
24280;BME280;12395;42.808;23.408;2023-01-28T10:23:23;94614.41;;;2.64;94.08
24280;BME280;12395;42.808;23.408;2023-01-28T10:25:50;94605.94;;;2.62;93.18
24280;BME280;12395;42.808;23.408;2023-01-28T10:28:36;94606.53;;;2.88;93.84
24280;BME280;12395;42.808;23.408;2023-01-28T10:31:02;94585.31;;;2.75;95.13
24280;BME280;12395;42.808;23.408;2023-01-28T10:35:53;94615.50;;;2.93;92.54
24280;BME280;12395;42.808;23.408;2023-01-28T10:38:21;94619.06;;;3.00;92.08
24280;BME280;12395;42.808;23.408;2023-01-28T10:40:48;94607.78;;;3.00;91.11
24280;BME280;12395;42.808;23.408;2023-01-28T10:43:20;94602.00;;;3.12;91.55
24280;BME280;12395;42.808;23.408;2023-01-28T10:46:08;94610.84;;;3.20;90.64
24280;BME280;12395;42.808;23.408;2023-01-28T10:48:41;94605.66;;;3.03;90.55
24280;BME280;12395;42.808;23.408;2023-01-28T10:51:36;94608.44;;;3.10;92.20
24280;BME280;12395;42.808;23.408;2023-01-28T10:54:13;94592.09;;;3.00;90.66
24280;BME280;12395;42.808;23.408;2023-01-28T10:56:42;94607.66;;;2.93;89.49
24280;BME280;12395;42.808;23.408;2023-01-28T10:59:35;94614.19;;;2.89;91.43
24280;BME280;12395;42.808;23.408;2023-01-28T11:05:00;94600.84;;;2.68;92.08
24280;BME280;12395;42.808;23.408;2023-01-28T11:07:26;94593.47;;;2.80;92.50
24280;BME280;12395;42.808;23.408;2023-01-28T11:09:51;94602.25;;;2.95;91.59
24280;BME280;12395;42.808;23.408;2023-01-28T11:12:21;94605.31;;;3.06;91.48
24280;BME280;12395;42.808;23.408;2023-01-28T11:15:05;94598.38;;;3.22;91.25
24280;BME280;12395;42.808;23.408;2023-01-28T11:17:33;94598.38;;;3.22;89.24
24280;BME280;12395;42.808;23.408;2023-01-28T11:20:09;94602.25;;;3.34;89.45
24280;BME280;12395;42.808;23.408;2023-01-28T11:22:38;94604.41;;;3.30;88.26
24280;BME280;12395;42.808;23.408;2023-01-28T11:25:17;94590.22;;;3.17;88.36
24280;BME280;12395;42.808;23.408;2023-01-28T11:27:50;94585.31;;;3.22;89.08
24280;BME280;12395;42.808;23.408;2023-01-28T11:32:57;94593.09;;;3.30;88.43
24280;BME280;12395;42.808;23.408;2023-01-28T11:35:28;94589.34;;;3.32;88.76
24280;BME280;12395;42.808;23.408;2023-01-28T11:37:59;94593.31;;;3.51;88.43
24280;BME280;12395;42.808;23.408;2023-01-28T11:40:25;94587.75;;;3.54;86.83
24280;BME280;12395;42.808;23.408;2023-01-28T11:42:52;94565.97;;;3.53;86.54
24280;BME280;12395;42.808;23.408;2023-01-28T11:48:01;94589.13;;;3.95;83.49
24280;BME280;12395;42.808;23.408;2023-01-28T11:58:58;94598.25;;;4.44;79.94
24280;BME280;12395;42.808;23.408;2023-01-28T12:05:07;94597.75;;;4.63;80.52
24280;BME280;12395;42.808;23.408;2023-01-28T12:07:41;94591.97;;;4.68;80.17
24280;BME280;12395;42.808;23.408;2023-01-28T12:10:21;94583.78;;;4.48;79.92
24280;BME280;12395;42.808;23.408;2023-01-28T12:13:15;94590.81;;;4.33;79.05
24280;BME280;12395;42.808;23.408;2023-01-28T12:15:57;94595.47;;;4.23;80.93
24280;BME280;12395;42.808;23.408;2023-01-28T12:30:29;94593.53;;;4.17;81.77
24280;BME280;12395;42.808;23.408;2023-01-28T12:38:43;94591.00;;;3.86;82.73
24280;BME280;12395;42.808;23.408;2023-01-28T12:41:15;94586.28;;;3.82;82.51
24280;BME280;12395;42.808;23.408;2023-01-28T12:44:07;94572.53;;;3.80;85.42
24280;BME280;12395;42.808;23.408;2023-01-28T12:57:28;94601.41;;;3.95;84.31
24280;BME280;12395;42.808;23.408;2023-01-28T13:05:43;94607.69;;;3.63;85.24
24280;BME280;12395;42.808;23.408;2023-01-28T13:08:18;94609.81;;;3.59;83.95
24280;BME280;12395;42.808;23.408;2023-01-28T13:10:46;94614.91;;;3.61;83.89
24280;BME280;12395;42.808;23.408;2023-01-28T13:13:28;94614.22;;;3.67;83.29
24280;BME280;12395;42.808;23.408;2023-01-28T13:15:54;94617.00;;;3.65;84.26
24280;BME280;12395;42.808;23.408;2023-01-28T13:24:01;94626.56;;;3.81;83.38
24280;BME280;12395;42.808;23.408;2023-01-28T13:26:50;94629.41;;;3.94;84.62
24280;BME280;12395;42.808;23.408;2023-01-28T13:29:31;94626.66;;;3.96;83.44
24280;BME280;12395;42.808;23.408;2023-01-28T13:31:59;94623.31;;;4.02;84.44
24280;BME280;12395;42.808;23.408;2023-01-28T13:36:50;94628.66;;;3.85;83.87
24280;BME280;12395;42.808;23.408;2023-01-28T13:39:20;94636.06;;;3.82;84.26
24280;BME280;12395;42.808;23.408;2023-01-28T13:41:48;94633.66;;;3.72;84.03
24280;BME280;12395;42.808;23.408;2023-01-28T13:44:20;94632.50;;;3.75;83.24
24280;BME280;12395;42.808;23.408;2023-01-28T13:46:52;94647.88;;;3.78;82.13
24280;BME280;12395;42.808;23.408;2023-01-28T13:49:25;94629.16;;;3.58;83.52
24280;BME280;12395;42.808;23.408;2023-01-28T13:54:37;94651.91;;;3.58;84.69
24280;BME280;12395;42.808;23.408;2023-01-28T14:00:07;94652.16;;;3.32;84.86
24280;BME280;12395;42.808;23.408;2023-01-28T14:08:25;94661.59;;;3.02;86.38
24280;BME280;12395;42.808;23.408;2023-01-28T14:18:31;94674.06;;;2.84;88.02
24280;BME280;12395;42.808;23.408;2023-01-28T14:21:00;94677.97;;;2.80;87.82
24280;BME280;12395;42.808;23.408;2023-01-28T14:23:27;94678.84;;;2.65;87.49
24280;BME280;12395;42.808;23.408;2023-01-28T14:26:22;94670.50;;;2.53;88.29
24280;BME280;12395;42.808;23.408;2023-01-28T14:29:05;94690.91;;;2.58;90.45
24280;BME280;12395;42.808;23.408;2023-01-28T14:31:35;94694.00;;;2.61;90.73
24280;BME280;12395;42.808;23.408;2023-01-28T14:36:40;94697.94;;;2.57;89.65
24280;BME280;12395;42.808;23.408;2023-01-28T14:39:23;94699.09;;;2.47;88.69
24280;BME280;12395;42.808;23.408;2023-01-28T14:41:51;94696.13;;;2.33;90.59
24280;BME280;12395;42.808;23.408;2023-01-28T14:44:21;94701.38;;;2.33;91.28
24280;BME280;12395;42.808;23.408;2023-01-28T14:47:00;94689.44;;;2.23;91.07
24280;BME280;12395;42.808;23.408;2023-01-28T14:52:28;94711.81;;;2.25;92.41
24280;BME280;12395;42.808;23.408;2023-01-28T14:57:36;94719.31;;;2.12;93.26
24280;BME280;12395;42.808;23.408;2023-01-28T15:00:16;94713.25;;;1.96;93.21
24280;BME280;12395;42.808;23.408;2023-01-28T15:02:42;94715.19;;;1.86;93.38
24280;BME280;12395;42.808;23.408;2023-01-28T15:05:14;94726.28;;;1.88;94.01
24280;BME280;12395;42.808;23.408;2023-01-28T15:07:43;94717.28;;;1.82;94.23
24280;BME280;12395;42.808;23.408;2023-01-28T15:10:36;94734.13;;;1.88;94.54
24280;BME280;12395;42.808;23.408;2023-01-28T15:13:07;94718.75;;;1.85;95.69
24280;BME280;12395;42.808;23.408;2023-01-28T15:15:37;94720.69;;;1.75;95.80
24280;BME280;12395;42.808;23.408;2023-01-28T15:18:28;94730.00;;;1.77;96.37
24280;BME280;12395;42.808;23.408;2023-01-28T15:20:54;94724.25;;;1.74;96.37
24280;BME280;12395;42.808;23.408;2023-01-28T15:23:33;94730.78;;;1.70;96.87